Terminal Aerodrome Forecast
Issued by NWS

Home | Current Version | Previous Version | Text Only | Print | Product List | Glossary On
Versions: 1 2 3 4 5 6 7 8 9 10 11 12 13 14 15 16 17 18 19
000
FTUS43 KLSX 290736 AAB
TAFUIN
TAF AMD
KUIN 290736Z 2908/3006 30007KT P6SM SCT040 BKN100
     FM290900 32012G18KT P6SM -SHRA VCTS BKN040CB
     FM291100 32010KT P6SM VCSH BKN050
     FM291300 35010KT P6SM BKN050
     FM292100 33008KT P6SM SKC=

USA.gov is the U.S. government's official web portal to all federal, state and local government web resources and services.